Terminal Aerodrome Forecast
Issued by NWS

Home | Current Version | Previous Version | Text Only | Print | Product List | Glossary On
Versions: 1 2 3 4 5 6 7 8 9 10 11 12 13 14 15 16 17 18 19 20 21
000
FTUS43 KGRR 241700
TAFAZO
TAF
KAZO 241735Z 2418/2518 19006KT P6SM OVC035
     FM250300 19003KT P6SM SKC
     FM250600 17003KT 4SM BR SKC
     FM250900 18005KT 2SM BR OVC007
     FM251200 24005KT 1 1/2SM BR OVC007
     FM251500 26009KT 4SM BR OVC015=

USA.gov is the U.S. government's official web portal to all federal, state and local government web resources and services.